sensor_id;sensor_type;location;lat;lon;timestamp;temperature;humidity
49238;DHT22;35069;47.906;1.892;2024-01-15T00:01:56;0.20;96.80
49238;DHT22;35069;47.906;1.892;2024-01-15T00:04:22;0.20;96.70
49238;DHT22;35069;47.906;1.892;2024-01-15T00:06:49;0.20;96.60
49238;DHT22;35069;47.906;1.892;2024-01-15T00:09:14;0.20;96.70
49238;DHT22;35069;47.906;1.892;2024-01-15T00:11:40;0.30;96.70
49238;DHT22;35069;47.906;1.892;2024-01-15T00:14:05;0.30;96.70
49238;DHT22;35069;47.906;1.892;2024-01-15T00:16:31;0.30;96.60
49238;DHT22;35069;47.906;1.892;2024-01-15T00:18:57;0.30;96.60
49238;DHT22;35069;47.906;1.892;2024-01-15T00:21:22;0.30;96.50
49238;DHT22;35069;47.906;1.892;2024-01-15T00:23:48;0.30;96.60
49238;DHT22;35069;47.906;1.892;2024-01-15T00:26:14;0.20;96.60
49238;DHT22;35069;47.906;1.892;2024-01-15T00:28:40;0.20;96.60
49238;DHT22;35069;47.906;1.892;2024-01-15T00:31:06;0.10;96.60
49238;DHT22;35069;47.906;1.892;2024-01-15T00:33:31;0.10;96.70
49238;DHT22;35069;47.906;1.892;2024-01-15T00:35:57;0.10;96.70
49238;DHT22;35069;47.906;1.892;2024-01-15T00:38:23;0.00;96.70
49238;DHT22;35069;47.906;1.892;2024-01-15T00:40:48;0.00;96.80
49238;DHT22;35069;47.906;1.892;2024-01-15T00:43:14;0.00;96.90
49238;DHT22;35069;47.906;1.892;2024-01-15T00:45:40;-0.10;96.80
49238;DHT22;35069;47.906;1.892;2024-01-15T00:48:06;-0.10;96.80
49238;DHT22;35069;47.906;1.892;2024-01-15T00:50:32;-0.10;96.90
49238;DHT22;35069;47.906;1.892;2024-01-15T00:52:57;-0.10;96.90
49238;DHT22;35069;47.906;1.892;2024-01-15T00:55:23;-0.10;96.90
49238;DHT22;35069;47.906;1.892;2024-01-15T00:57:48;-0.10;96.80
49238;DHT22;35069;47.906;1.892;2024-01-15T01:00:14;-0.20;97.00
49238;DHT22;35069;47.906;1.892;2024-01-15T01:02:40;-0.10;97.10
49238;DHT22;35069;47.906;1.892;2024-01-15T01:05:05;-0.20;97.30
49238;DHT22;35069;47.906;1.892;2024-01-15T01:07:31;-0.20;96.90
49238;DHT22;35069;47.906;1.892;2024-01-15T01:09:57;-0.20;96.80
49238;DHT22;35069;47.906;1.892;2024-01-15T01:12:22;-0.20;96.90
49238;DHT22;35069;47.906;1.892;2024-01-15T01:14:48;-0.20;96.90
49238;DHT22;35069;47.906;1.892;2024-01-15T01:17:13;-0.20;96.80
49238;DHT22;35069;47.906;1.892;2024-01-15T01:19:39;-0.20;96.80
49238;DHT22;35069;47.906;1.892;2024-01-15T01:22:05;-0.20;96.80
49238;DHT22;35069;47.906;1.892;2024-01-15T01:24:30;-0.20;96.90
49238;DHT22;35069;47.906;1.892;2024-01-15T01:26:56;-0.20;96.80
49238;DHT22;35069;47.906;1.892;2024-01-15T01:29:21;-0.20;96.80
49238;DHT22;35069;47.906;1.892;2024-01-15T01:31:48;-0.20;96.80
49238;DHT22;35069;47.906;1.892;2024-01-15T01:34:15;-0.30;96.80
49238;DHT22;35069;47.906;1.892;2024-01-15T01:36:41;-0.20;97.00
49238;DHT22;35069;47.906;1.892;2024-01-15T01:39:07;-0.30;97.00
49238;DHT22;35069;47.906;1.892;2024-01-15T01:41:32;-0.30;97.00
49238;DHT22;35069;47.906;1.892;2024-01-15T01:43:58;-0.30;96.90
49238;DHT22;35069;47.906;1.892;2024-01-15T01:46:24;-0.30;97.00
49238;DHT22;35069;47.906;1.892;2024-01-15T01:48:51;-0.20;97.10
49238;DHT22;35069;47.906;1.892;2024-01-15T01:51:17;-0.20;97.10
49238;DHT22;35069;47.906;1.892;2024-01-15T01:53:44;-0.20;97.20
49238;DHT22;35069;47.906;1.892;2024-01-15T01:56:09;-0.20;97.30
49238;DHT22;35069;47.906;1.892;2024-01-15T01:58:35;-0.20;97.20
49238;DHT22;35069;47.906;1.892;2024-01-15T02:01:01;-0.10;97.30
49238;DHT22;35069;47.906;1.892;2024-01-15T02:03:27;-0.10;97.20
49238;DHT22;35069;47.906;1.892;2024-01-15T02:05:53;-0.10;97.30
49238;DHT22;35069;47.906;1.892;2024-01-15T02:08:19;-0.10;97.20
49238;DHT22;35069;47.906;1.892;2024-01-15T02:10:45;0.00;97.30
49238;DHT22;35069;47.906;1.892;2024-01-15T02:13:10;-0.10;97.20
49238;DHT22;35069;47.906;1.892;2024-01-15T02:15:36;0.00;97.20
49238;DHT22;35069;47.906;1.892;2024-01-15T02:18:03;0.00;97.20
49238;DHT22;35069;47.906;1.892;2024-01-15T02:20:29;0.00;97.20
49238;DHT22;35069;47.906;1.892;2024-01-15T02:23:15;0.00;97.20
49238;DHT22;35069;47.906;1.892;2024-01-15T02:25:45;0.00;97.10
49238;DHT22;35069;47.906;1.892;2024-01-15T02:28:13;0.00;97.10
49238;DHT22;35069;47.906;1.892;2024-01-15T02:30:41;0.00;97.00
49238;DHT22;35069;47.906;1.892;2024-01-15T02:33:11;0.00;97.10
49238;DHT22;35069;47.906;1.892;2024-01-15T02:35:36;0.00;97.30
49238;DHT22;35069;47.906;1.892;2024-01-15T02:38:03;0.10;97.00
49238;DHT22;35069;47.906;1.892;2024-01-15T02:40:29;0.00;97.00
49238;DHT22;35069;47.906;1.892;2024-01-15T02:42:54;0.00;97.00
49238;DHT22;35069;47.906;1.892;2024-01-15T02:45:23;0.00;96.90
49238;DHT22;35069;47.906;1.892;2024-01-15T02:47:49;-0.10;96.90
49238;DHT22;35069;47.906;1.892;2024-01-15T02:50:14;-0.10;96.90
49238;DHT22;35069;47.906;1.892;2024-01-15T02:52:41;-0.10;97.00
49238;DHT22;35069;47.906;1.892;2024-01-15T02:55:07;-0.10;97.00
49238;DHT22;35069;47.906;1.892;2024-01-15T02:57:33;-0.20;97.00
49238;DHT22;35069;47.906;1.892;2024-01-15T02:59:59;-0.20;97.00
49238;DHT22;35069;47.906;1.892;2024-01-15T03:02:24;-0.20;96.90
49238;DHT22;35069;47.906;1.892;2024-01-15T03:04:50;-0.20;96.90
49238;DHT22;35069;47.906;1.892;2024-01-15T03:07:15;-0.20;96.90
49238;DHT22;35069;47.906;1.892;2024-01-15T03:09:41;-0.20;97.10
49238;DHT22;35069;47.906;1.892;2024-01-15T03:12:07;-0.20;97.10
49238;DHT22;35069;47.906;1.892;2024-01-15T03:14:32;-0.20;97.10
49238;DHT22;35069;47.906;1.892;2024-01-15T03:16:58;-0.20;97.10
49238;DHT22;35069;47.906;1.892;2024-01-15T03:19:24;-0.20;97.20
49238;DHT22;35069;47.906;1.892;2024-01-15T03:21:49;-0.20;97.10
49238;DHT22;35069;47.906;1.892;2024-01-15T03:24:15;-0.20;97.20
49238;DHT22;35069;47.906;1.892;2024-01-15T03:26:40;-0.20;97.30
49238;DHT22;35069;47.906;1.892;2024-01-15T03:29:07;-0.20;97.30
49238;DHT22;35069;47.906;1.892;2024-01-15T03:31:33;-0.20;97.50
49238;DHT22;35069;47.906;1.892;2024-01-15T03:33:58;-0.20;97.30
49238;DHT22;35069;47.906;1.892;2024-01-15T03:36:24;-0.20;97.30
49238;DHT22;35069;47.906;1.892;2024-01-15T03:38:50;-0.20;97.30
49238;DHT22;35069;47.906;1.892;2024-01-15T03:41:15;-0.20;97.20
49238;DHT22;35069;47.906;1.892;2024-01-15T03:43:41;-0.20;97.30
49238;DHT22;35069;47.906;1.892;2024-01-15T03:46:07;-0.20;97.50
49238;DHT22;35069;47.906;1.892;2024-01-15T03:48:32;-0.10;97.40
49238;DHT22;35069;47.906;1.892;2024-01-15T03:50:58;-0.10;97.40
49238;DHT22;35069;47.906;1.892;2024-01-15T03:53:23;-0.10;97.40
49238;DHT22;35069;47.906;1.892;2024-01-15T03:55:49;0.00;97.40
49238;DHT22;35069;47.906;1.892;2024-01-15T03:58:15;0.00;97.40
49238;DHT22;35069;47.906;1.892;2024-01-15T04:00:41;0.00;97.40
49238;DHT22;35069;47.906;1.892;2024-01-15T04:03:07;0.00;97.40
49238;DHT22;35069;47.906;1.892;2024-01-15T04:05:33;0.00;97.30
49238;DHT22;35069;47.906;1.892;2024-01-15T04:07:58;0.00;97.30
49238;DHT22;35069;47.906;1.892;2024-01-15T04:10:24;0.10;97.30
49238;DHT22;35069;47.906;1.892;2024-01-15T04:12:49;0.00;97.20
49238;DHT22;35069;47.906;1.892;2024-01-15T04:15:15;0.10;97.30
49238;DHT22;35069;47.906;1.892;2024-01-15T04:17:41;0.00;97.30
49238;DHT22;35069;47.906;1.892;2024-01-15T04:20:07;0.10;97.30
49238;DHT22;35069;47.906;1.892;2024-01-15T04:22:34;0.10;97.30
49238;DHT22;35069;47.906;1.892;2024-01-15T04:25:00;0.10;97.30
49238;DHT22;35069;47.906;1.892;2024-01-15T04:27:26;0.10;97.30
49238;DHT22;35069;47.906;1.892;2024-01-15T04:29:51;0.10;97.30
49238;DHT22;35069;47.906;1.892;2024-01-15T04:32:17;0.10;97.20
49238;DHT22;35069;47.906;1.892;2024-01-15T04:34:42;0.10;97.30
49238;DHT22;35069;47.906;1.892;2024-01-15T04:37:08;0.10;97.30
49238;DHT22;35069;47.906;1.892;2024-01-15T04:39:33;0.10;97.30
49238;DHT22;35069;47.906;1.892;2024-01-15T04:41:59;0.10;97.20
49238;DHT22;35069;47.906;1.892;2024-01-15T04:44:25;0.10;97.20
49238;DHT22;35069;47.906;1.892;2024-01-15T04:46:50;0.10;97.30
49238;DHT22;35069;47.906;1.892;2024-01-15T04:49:16;0.10;97.30
49238;DHT22;35069;47.906;1.892;2024-01-15T04:51:41;0.10;97.30
49238;DHT22;35069;47.906;1.892;2024-01-15T04:54:07;0.10;97.30
49238;DHT22;35069;47.906;1.892;2024-01-15T04:56:32;0.10;97.40
49238;DHT22;35069;47.906;1.892;2024-01-15T04:58:58;0.10;97.30
49238;DHT22;35069;47.906;1.892;2024-01-15T05:01:23;0.10;97.40
49238;DHT22;35069;47.906;1.892;2024-01-15T05:03:49;0.10;97.40
49238;DHT22;35069;47.906;1.892;2024-01-15T05:06:15;0.10;97.40
49238;DHT22;35069;47.906;1.892;2024-01-15T05:08:41;0.10;97.40
49238;DHT22;35069;47.906;1.892;2024-01-15T05:11:06;0.10;97.40
49238;DHT22;35069;47.906;1.892;2024-01-15T05:13:32;0.10;97.70
49238;DHT22;35069;47.906;1.892;2024-01-15T05:15:58;0.10;97.50
49238;DHT22;35069;47.906;1.892;2024-01-15T05:18:23;0.10;97.50
49238;DHT22;35069;47.906;1.892;2024-01-15T05:20:49;0.10;97.60
49238;DHT22;35069;47.906;1.892;2024-01-15T05:23:14;0.10;97.60
49238;DHT22;35069;47.906;1.892;2024-01-15T05:25:40;0.10;97.50
49238;DHT22;35069;47.906;1.892;2024-01-15T05:28:05;0.10;97.50
49238;DHT22;35069;47.906;1.892;2024-01-15T05:30:31;0.10;97.50
49238;DHT22;35069;47.906;1.892;2024-01-15T05:32:57;0.10;97.70
49238;DHT22;35069;47.906;1.892;2024-01-15T05:35:23;0.10;97.60
49238;DHT22;35069;47.906;1.892;2024-01-15T05:37:48;0.10;97.70
49238;DHT22;35069;47.906;1.892;2024-01-15T05:40:14;0.10;97.70
49238;DHT22;35069;47.906;1.892;2024-01-15T05:42:40;0.20;97.70
49238;DHT22;35069;47.906;1.892;2024-01-15T05:45:06;0.20;97.60
49238;DHT22;35069;47.906;1.892;2024-01-15T05:47:32;0.20;97.50
49238;DHT22;35069;47.906;1.892;2024-01-15T05:49:58;0.20;97.50
49238;DHT22;35069;47.906;1.892;2024-01-15T05:52:24;0.20;97.50
49238;DHT22;35069;47.906;1.892;2024-01-15T05:54:50;0.20;97.60
49238;DHT22;35069;47.906;1.892;2024-01-15T05:57:16;0.20;97.70
49238;DHT22;35069;47.906;1.892;2024-01-15T05:59:43;0.10;97.60
49238;DHT22;35069;47.906;1.892;2024-01-15T06:02:09;0.10;97.60
49238;DHT22;35069;47.906;1.892;2024-01-15T06:04:35;0.10;97.60
49238;DHT22;35069;47.906;1.892;2024-01-15T06:07:00;0.10;97.60
49238;DHT22;35069;47.906;1.892;2024-01-15T06:09:26;0.10;97.60
49238;DHT22;35069;47.906;1.892;2024-01-15T06:11:51;0.10;97.70
49238;DHT22;35069;47.906;1.892;2024-01-15T06:14:17;0.10;97.60
49238;DHT22;35069;47.906;1.892;2024-01-15T06:16:42;0.10;97.60
49238;DHT22;35069;47.906;1.892;2024-01-15T06:19:08;0.10;97.60
49238;DHT22;35069;47.906;1.892;2024-01-15T06:21:34;0.10;97.70
49238;DHT22;35069;47.906;1.892;2024-01-15T06:23:59;0.10;97.60
49238;DHT22;35069;47.906;1.892;2024-01-15T06:26:25;0.10;97.60
49238;DHT22;35069;47.906;1.892;2024-01-15T06:28:51;0.10;97.70
49238;DHT22;35069;47.906;1.892;2024-01-15T06:31:16;0.10;97.60
49238;DHT22;35069;47.906;1.892;2024-01-15T06:33:42;0.10;97.70
49238;DHT22;35069;47.906;1.892;2024-01-15T06:36:07;0.10;97.70
49238;DHT22;35069;47.906;1.892;2024-01-15T06:38:33;0.00;97.50
49238;DHT22;35069;47.906;1.892;2024-01-15T06:40:59;0.00;97.60
49238;DHT22;35069;47.906;1.892;2024-01-15T06:43:25;0.00;97.60
49238;DHT22;35069;47.906;1.892;2024-01-15T06:45:50;0.00;97.60
49238;DHT22;35069;47.906;1.892;2024-01-15T06:48:16;0.00;97.60
49238;DHT22;35069;47.906;1.892;2024-01-15T06:50:42;-0.10;97.60
49238;DHT22;35069;47.906;1.892;2024-01-15T06:53:08;-0.10;97.60
49238;DHT22;35069;47.906;1.892;2024-01-15T06:55:34;-0.10;97.50
49238;DHT22;35069;47.906;1.892;2024-01-15T06:57:59;-0.10;97.60
49238;DHT22;35069;47.906;1.892;2024-01-15T07:00:25;-0.10;97.70
49238;DHT22;35069;47.906;1.892;2024-01-15T07:02:51;-0.10;97.60
49238;DHT22;35069;47.906;1.892;2024-01-15T07:05:17;-0.10;97.60
49238;DHT22;35069;47.906;1.892;2024-01-15T07:07:43;0.00;98.60
49238;DHT22;35069;47.906;1.892;2024-01-15T07:10:09;0.10;98.40
49238;DHT22;35069;47.906;1.892;2024-01-15T07:12:34;0.20;98.30
49238;DHT22;35069;47.906;1.892;2024-01-15T07:15:00;0.10;97.70
49238;DHT22;35069;47.906;1.892;2024-01-15T07:17:27;0.00;97.60
49238;DHT22;35069;47.906;1.892;2024-01-15T07:19:52;0.00;97.60
49238;DHT22;35069;47.906;1.892;2024-01-15T07:22:18;0.00;97.70
49238;DHT22;35069;47.906;1.892;2024-01-15T07:24:43;0.00;97.70
49238;DHT22;35069;47.906;1.892;2024-01-15T07:27:09;0.00;98.00
49238;DHT22;35069;47.906;1.892;2024-01-15T07:29:35;0.00;97.80
49238;DHT22;35069;47.906;1.892;2024-01-15T07:32:04;0.00;97.90
49238;DHT22;35069;47.906;1.892;2024-01-15T07:34:30;0.00;97.90
49238;DHT22;35069;47.906;1.892;2024-01-15T07:36:57;0.10;98.00
49238;DHT22;35069;47.906;1.892;2024-01-15T07:39:23;0.10;98.00
49238;DHT22;35069;47.906;1.892;2024-01-15T07:41:50;0.10;97.90
49238;DHT22;35069;47.906;1.892;2024-01-15T07:44:15;0.10;98.00
49238;DHT22;35069;47.906;1.892;2024-01-15T07:46:45;0.10;97.90
49238;DHT22;35069;47.906;1.892;2024-01-15T07:49:11;0.10;97.90
49238;DHT22;35069;47.906;1.892;2024-01-15T07:51:37;0.10;97.90
49238;DHT22;35069;47.906;1.892;2024-01-15T07:54:02;0.10;97.90
49238;DHT22;35069;47.906;1.892;2024-01-15T07:56:28;0.10;97.90
49238;DHT22;35069;47.906;1.892;2024-01-15T07:58:53;0.10;97.90
49238;DHT22;35069;47.906;1.892;2024-01-15T08:01:19;0.00;97.90
49238;DHT22;35069;47.906;1.892;2024-01-15T08:03:45;0.00;98.10
49238;DHT22;35069;47.906;1.892;2024-01-15T08:06:10;0.10;98.10
49238;DHT22;35069;47.906;1.892;2024-01-15T08:08:37;0.10;98.00
49238;DHT22;35069;47.906;1.892;2024-01-15T08:11:02;0.10;98.10
49238;DHT22;35069;47.906;1.892;2024-01-15T08:13:28;0.20;98.10
49238;DHT22;35069;47.906;1.892;2024-01-15T08:15:53;0.30;98.20
49238;DHT22;35069;47.906;1.892;2024-01-15T08:18:19;0.50;98.20
49238;DHT22;35069;47.906;1.892;2024-01-15T08:20:47;0.60;98.20
49238;DHT22;35069;47.906;1.892;2024-01-15T08:23:12;0.70;98.10
49238;DHT22;35069;47.906;1.892;2024-01-15T08:25:38;0.90;98.00
49238;DHT22;35069;47.906;1.892;2024-01-15T08:28:03;0.90;97.80
49238;DHT22;35069;47.906;1.892;2024-01-15T08:30:29;1.00;97.70
49238;DHT22;35069;47.906;1.892;2024-01-15T08:32:55;1.00;97.70
49238;DHT22;35069;47.906;1.892;2024-01-15T08:35:21;1.00;97.60
49238;DHT22;35069;47.906;1.892;2024-01-15T08:37:53;1.00;97.60
49238;DHT22;35069;47.906;1.892;2024-01-15T08:40:19;1.00;97.60
49238;DHT22;35069;47.906;1.892;2024-01-15T08:42:44;1.00;97.70
49238;DHT22;35069;47.906;1.892;2024-01-15T08:45:13;1.00;97.60
49238;DHT22;35069;47.906;1.892;2024-01-15T08:47:39;1.00;97.70
49238;DHT22;35069;47.906;1.892;2024-01-15T08:50:05;1.00;97.70
49238;DHT22;35069;47.906;1.892;2024-01-15T08:52:31;1.10;97.80
49238;DHT22;35069;47.906;1.892;2024-01-15T08:54:57;1.00;97.60
49238;DHT22;35069;47.906;1.892;2024-01-15T08:57:22;1.00;97.70
49238;DHT22;35069;47.906;1.892;2024-01-15T08:59:48;1.00;97.70
49238;DHT22;35069;47.906;1.892;2024-01-15T09:02:14;1.00;97.70
49238;DHT22;35069;47.906;1.892;2024-01-15T09:04:40;1.00;97.70
49238;DHT22;35069;47.906;1.892;2024-01-15T09:07:07;1.00;97.70
49238;DHT22;35069;47.906;1.892;2024-01-15T09:09:32;1.10;97.80
49238;DHT22;35069;47.906;1.892;2024-01-15T09:11:59;1.10;97.80
49238;DHT22;35069;47.906;1.892;2024-01-15T09:14:26;1.10;97.90
49238;DHT22;35069;47.906;1.892;2024-01-15T09:16:53;1.10;97.90
49238;DHT22;35069;47.906;1.892;2024-01-15T09:19:19;1.20;97.90
49238;DHT22;35069;47.906;1.892;2024-01-15T09:21:44;1.30;98.00
49238;DHT22;35069;47.906;1.892;2024-01-15T09:24:11;1.40;97.90
49238;DHT22;35069;47.906;1.892;2024-01-15T09:26:36;1.40;97.80
49238;DHT22;35069;47.906;1.892;2024-01-15T09:29:02;1.40;97.80
49238;DHT22;35069;47.906;1.892;2024-01-15T09:31:28;1.50;97.70
49238;DHT22;35069;47.906;1.892;2024-01-15T09:33:54;1.50;97.70
49238;DHT22;35069;47.906;1.892;2024-01-15T09:36:23;1.50;97.60
49238;DHT22;35069;47.906;1.892;2024-01-15T09:38:49;1.50;97.50
49238;DHT22;35069;47.906;1.892;2024-01-15T09:41:15;1.50;97.70
49238;DHT22;35069;47.906;1.892;2024-01-15T09:43:41;1.60;97.70
49238;DHT22;35069;47.906;1.892;2024-01-15T09:46:07;1.70;97.80
49238;DHT22;35069;47.906;1.892;2024-01-15T09:48:33;1.70;97.70
49238;DHT22;35069;47.906;1.892;2024-01-15T09:51:01;1.80;97.60
49238;DHT22;35069;47.906;1.892;2024-01-15T09:53:27;1.80;97.50
49238;DHT22;35069;47.906;1.892;2024-01-15T09:55:53;1.80;97.50
49238;DHT22;35069;47.906;1.892;2024-01-15T09:58:19;1.90;97.60
49238;DHT22;35069;47.906;1.892;2024-01-15T10:00:45;1.90;97.50
49238;DHT22;35069;47.906;1.892;2024-01-15T10:03:13;2.00;97.50
49238;DHT22;35069;47.906;1.892;2024-01-15T10:05:39;1.90;97.10
49238;DHT22;35069;47.906;1.892;2024-01-15T10:08:05;1.90;97.40
49238;DHT22;35069;47.906;1.892;2024-01-15T10:10:31;1.90;97.40
49238;DHT22;35069;47.906;1.892;2024-01-15T10:12:58;2.00;97.40
49238;DHT22;35069;47.906;1.892;2024-01-15T10:15:25;2.00;97.30
49238;DHT22;35069;47.906;1.892;2024-01-15T10:17:52;2.00;97.20
49238;DHT22;35069;47.906;1.892;2024-01-15T10:20:17;2.00;97.40
49238;DHT22;35069;47.906;1.892;2024-01-15T10:22:44;2.10;97.50
49238;DHT22;35069;47.906;1.892;2024-01-15T10:25:13;2.10;97.30
49238;DHT22;35069;47.906;1.892;2024-01-15T10:27:42;2.20;97.40
49238;DHT22;35069;47.906;1.892;2024-01-15T10:30:09;2.30;97.50
49238;DHT22;35069;47.906;1.892;2024-01-15T10:32:35;2.40;97.40
49238;DHT22;35069;47.906;1.892;2024-01-15T10:35:00;2.50;97.50
49238;DHT22;35069;47.906;1.892;2024-01-15T10:37:26;2.60;97.40
49238;DHT22;35069;47.906;1.892;2024-01-15T10:39:52;2.60;97.30
49238;DHT22;35069;47.906;1.892;2024-01-15T10:42:18;2.70;97.20
49238;DHT22;35069;47.906;1.892;2024-01-15T10:44:44;2.80;97.30
49238;DHT22;35069;47.906;1.892;2024-01-15T10:47:12;2.80;97.20
49238;DHT22;35069;47.906;1.892;2024-01-15T10:49:38;2.80;96.80
49238;DHT22;35069;47.906;1.892;2024-01-15T10:52:05;2.80;97.00
49238;DHT22;35069;47.906;1.892;2024-01-15T10:54:32;2.80;97.10
49238;DHT22;35069;47.906;1.892;2024-01-15T10:56:57;2.70;96.80
49238;DHT22;35069;47.906;1.892;2024-01-15T10:59:23;2.70;96.90
49238;DHT22;35069;47.906;1.892;2024-01-15T11:01:50;2.70;96.80
49238;DHT22;35069;47.906;1.892;2024-01-15T11:04:18;2.70;96.90
49238;DHT22;35069;47.906;1.892;2024-01-15T11:06:46;2.70;97.10
49238;DHT22;35069;47.906;1.892;2024-01-15T11:09:12;2.80;97.20
49238;DHT22;35069;47.906;1.892;2024-01-15T11:11:41;2.90;97.30
49238;DHT22;35069;47.906;1.892;2024-01-15T11:14:07;3.10;97.10
49238;DHT22;35069;47.906;1.892;2024-01-15T11:16:53;3.20;97.00
49238;DHT22;35069;47.906;1.892;2024-01-15T11:19:19;3.30;97.00
49238;DHT22;35069;47.906;1.892;2024-01-15T11:21:45;3.30;97.00
49238;DHT22;35069;47.906;1.892;2024-01-15T11:24:11;3.50;96.90
49238;DHT22;35069;47.906;1.892;2024-01-15T11:26:56;3.60;96.90
49238;DHT22;35069;47.906;1.892;2024-01-15T11:29:28;3.80;96.90
49238;DHT22;35069;47.906;1.892;2024-01-15T11:32:07;4.00;96.80
49238;DHT22;35069;47.906;1.892;2024-01-15T11:34:52;4.20;96.80
49238;DHT22;35069;47.906;1.892;2024-01-15T11:37:21;4.40;96.50
49238;DHT22;35069;47.906;1.892;2024-01-15T11:39:51;4.50;96.30
49238;DHT22;35069;47.906;1.892;2024-01-15T11:42:17;4.80;96.30
49238;DHT22;35069;47.906;1.892;2024-01-15T11:44:44;5.00;96.00
49238;DHT22;35069;47.906;1.892;2024-01-15T11:47:11;5.10;95.80
49238;DHT22;35069;47.906;1.892;2024-01-15T11:52:22;5.50;95.60
49238;DHT22;35069;47.906;1.892;2024-01-15T11:54:55;5.70;95.40
49238;DHT22;35069;47.906;1.892;2024-01-15T11:57:34;5.90;95.40
49238;DHT22;35069;47.906;1.892;2024-01-15T12:00:04;6.10;95.00
49238;DHT22;35069;47.906;1.892;2024-01-15T12:02:30;6.10;94.40
49238;DHT22;35069;47.906;1.892;2024-01-15T12:04:55;6.00;94.30
49238;DHT22;35069;47.906;1.892;2024-01-15T12:07:22;5.80;94.00
49238;DHT22;35069;47.906;1.892;2024-01-15T12:09:47;5.70;94.20
49238;DHT22;35069;47.906;1.892;2024-01-15T12:12:32;5.60;94.30
49238;DHT22;35069;47.906;1.892;2024-01-15T12:15:02;5.60;94.30
49238;DHT22;35069;47.906;1.892;2024-01-15T12:17:27;5.40;93.20
49238;DHT22;35069;47.906;1.892;2024-01-15T12:19:53;5.50;94.20
49238;DHT22;35069;47.906;1.892;2024-01-15T12:22:19;5.60;94.20
49238;DHT22;35069;47.906;1.892;2024-01-15T12:24:44;5.80;94.40
49238;DHT22;35069;47.906;1.892;2024-01-15T12:27:10;6.10;94.40
49238;DHT22;35069;47.906;1.892;2024-01-15T12:29:38;6.80;94.20
49238;DHT22;35069;47.906;1.892;2024-01-15T12:32:05;7.00;93.40
49238;DHT22;35069;47.906;1.892;2024-01-15T12:34:31;7.10;92.70
49238;DHT22;35069;47.906;1.892;2024-01-15T12:36:58;7.60;92.40
49238;DHT22;35069;47.906;1.892;2024-01-15T12:39:24;9.40;90.90
49238;DHT22;35069;47.906;1.892;2024-01-15T12:41:51;11.70;84.60
49238;DHT22;35069;47.906;1.892;2024-01-15T12:44:16;13.50;79.10
49238;DHT22;35069;47.906;1.892;2024-01-15T12:46:42;14.80;75.50
49238;DHT22;35069;47.906;1.892;2024-01-15T12:49:08;14.90;72.10
49238;DHT22;35069;47.906;1.892;2024-01-15T12:51:34;15.20;71.20
49238;DHT22;35069;47.906;1.892;2024-01-15T12:54:00;15.30;70.20
49238;DHT22;35069;47.906;1.892;2024-01-15T12:56:25;14.30;73.00
49238;DHT22;35069;47.906;1.892;2024-01-15T12:58:51;12.60;74.40
49238;DHT22;35069;47.906;1.892;2024-01-15T13:01:17;11.20;75.60
49238;DHT22;35069;47.906;1.892;2024-01-15T13:03:42;10.10;78.20
49238;DHT22;35069;47.906;1.892;2024-01-15T13:06:08;9.00;81.20
49238;DHT22;35069;47.906;1.892;2024-01-15T13:08:33;8.10;81.90
49238;DHT22;35069;47.906;1.892;2024-01-15T13:10:59;7.40;84.10
49238;DHT22;35069;47.906;1.892;2024-01-15T13:13:25;6.90;85.20
49238;DHT22;35069;47.906;1.892;2024-01-15T13:15:50;6.60;86.00
49238;DHT22;35069;47.906;1.892;2024-01-15T13:18:16;6.30;86.80
49238;DHT22;35069;47.906;1.892;2024-01-15T13:20:41;6.20;87.50
49238;DHT22;35069;47.906;1.892;2024-01-15T13:23:07;6.00;86.80
49238;DHT22;35069;47.906;1.892;2024-01-15T13:25:33;5.80;87.30
49238;DHT22;35069;47.906;1.892;2024-01-15T13:28:04;5.70;86.80
49238;DHT22;35069;47.906;1.892;2024-01-15T13:30:30;5.60;86.40
49238;DHT22;35069;47.906;1.892;2024-01-15T13:32:56;5.50;86.80
49238;DHT22;35069;47.906;1.892;2024-01-15T13:35:23;5.40;87.10
49238;DHT22;35069;47.906;1.892;2024-01-15T13:37:48;5.40;86.90
49238;DHT22;35069;47.906;1.892;2024-01-15T13:40:14;5.30;86.90
49238;DHT22;35069;47.906;1.892;2024-01-15T13:42:45;5.20;86.20
49238;DHT22;35069;47.906;1.892;2024-01-15T13:45:11;5.20;85.80
49238;DHT22;35069;47.906;1.892;2024-01-15T13:47:40;5.10;85.90
49238;DHT22;35069;47.906;1.892;2024-01-15T13:50:07;5.00;85.80
49238;DHT22;35069;47.906;1.892;2024-01-15T13:52:34;4.90;85.50
49238;DHT22;35069;47.906;1.892;2024-01-15T13:55:00;4.90;85.60
49238;DHT22;35069;47.906;1.892;2024-01-15T13:57:26;4.90;85.50
49238;DHT22;35069;47.906;1.892;2024-01-15T13:59:51;4.80;84.90
49238;DHT22;35069;47.906;1.892;2024-01-15T14:02:17;4.80;84.00
49238;DHT22;35069;47.906;1.892;2024-01-15T14:04:43;4.80;84.90
49238;DHT22;35069;47.906;1.892;2024-01-15T14:07:09;4.80;84.10
49238;DHT22;35069;47.906;1.892;2024-01-15T14:09:34;4.90;82.50
49238;DHT22;35069;47.906;1.892;2024-01-15T14:12:00;4.80;83.30
49238;DHT22;35069;47.906;1.892;2024-01-15T14:14:26;4.90;82.70
49238;DHT22;35069;47.906;1.892;2024-01-15T14:16:51;4.80;82.40
49238;DHT22;35069;47.906;1.892;2024-01-15T14:19:17;4.80;81.20
49238;DHT22;35069;47.906;1.892;2024-01-15T14:21:43;4.80;80.30
49238;DHT22;35069;47.906;1.892;2024-01-15T14:24:09;4.80;81.20
49238;DHT22;35069;47.906;1.892;2024-01-15T14:26:34;4.80;80.80
49238;DHT22;35069;47.906;1.892;2024-01-15T14:29:00;4.80;80.80
49238;DHT22;35069;47.906;1.892;2024-01-15T14:31:25;4.80;79.20
49238;DHT22;35069;47.906;1.892;2024-01-15T14:33:54;4.80;79.70
49238;DHT22;35069;47.906;1.892;2024-01-15T14:36:23;4.80;80.60
49238;DHT22;35069;47.906;1.892;2024-01-15T14:38:49;4.70;79.50
49238;DHT22;35069;47.906;1.892;2024-01-15T14:41:15;4.70;80.00
49238;DHT22;35069;47.906;1.892;2024-01-15T14:43:42;4.80;75.30
49238;DHT22;35069;47.906;1.892;2024-01-15T14:46:07;4.80;78.40
49238;DHT22;35069;47.906;1.892;2024-01-15T14:48:33;4.70;77.10
49238;DHT22;35069;47.906;1.892;2024-01-15T14:50:59;4.70;74.40
49238;DHT22;35069;47.906;1.892;2024-01-15T14:53:24;4.70;77.70
49238;DHT22;35069;47.906;1.892;2024-01-15T14:55:50;4.70;77.60
49238;DHT22;35069;47.906;1.892;2024-01-15T14:58:15;4.70;77.10
49238;DHT22;35069;47.906;1.892;2024-01-15T15:00:41;4.60;72.40
49238;DHT22;35069;47.906;1.892;2024-01-15T15:03:06;4.60;77.90
49238;DHT22;35069;47.906;1.892;2024-01-15T15:05:32;4.60;78.40
49238;DHT22;35069;47.906;1.892;2024-01-15T15:07:58;4.60;78.20
49238;DHT22;35069;47.906;1.892;2024-01-15T15:10:23;4.60;78.40
49238;DHT22;35069;47.906;1.892;2024-01-15T15:12:49;4.60;78.50
49238;DHT22;35069;47.906;1.892;2024-01-15T15:15:14;4.50;78.40
49238;DHT22;35069;47.906;1.892;2024-01-15T15:17:42;4.50;78.90
49238;DHT22;35069;47.906;1.892;2024-01-15T15:20:08;4.50;78.70
49238;DHT22;35069;47.906;1.892;2024-01-15T15:22:34;4.50;78.70
49238;DHT22;35069;47.906;1.892;2024-01-15T15:24:59;4.50;79.10
49238;DHT22;35069;47.906;1.892;2024-01-15T15:27:25;4.60;79.00
49238;DHT22;35069;47.906;1.892;2024-01-15T15:29:53;4.60;79.20
49238;DHT22;35069;47.906;1.892;2024-01-15T15:32:18;4.50;79.60
49238;DHT22;35069;47.906;1.892;2024-01-15T15:34:44;4.50;79.80
49238;DHT22;35069;47.906;1.892;2024-01-15T15:37:09;4.50;79.50
49238;DHT22;35069;47.906;1.892;2024-01-15T15:39:35;4.50;79.80